sensor_id;sensor_type;location;lat;lon;timestamp;P1;P2;P0
79117;PMS7003;68523;51.336;-0.846;2023-06-26T00:00:00;5;5;
79117;PMS7003;68523;51.336;-0.846;2023-06-26T00:03:00;5;5;
79117;PMS7003;68523;51.336;-0.846;2023-06-26T00:06:00;5;4;
79117;PMS7003;68523;51.336;-0.846;2023-06-26T00:09:00;5;4;
79117;PMS7003;68523;51.336;-0.846;2023-06-26T00:12:00;5;4;
79117;PMS7003;68523;51.336;-0.846;2023-06-26T00:15:00;4;4;
79117;PMS7003;68523;51.336;-0.846;2023-06-26T00:18:00;4;4;
79117;PMS7003;68523;51.336;-0.846;2023-06-26T00:21:00;5;3;
79117;PMS7003;68523;51.336;-0.846;2023-06-26T00:24:00;3;3;
79117;PMS7003;68523;51.336;-0.846;2023-06-26T00:27:00;3;3;
79117;PMS7003;68523;51.336;-0.846;2023-06-26T00:30:00;5;4;
79117;PMS7003;68523;51.336;-0.846;2023-06-26T00:33:00;5;4;
79117;PMS7003;68523;51.336;-0.846;2023-06-26T00:36:00;6;6;
79117;PMS7003;68523;51.336;-0.846;2023-06-26T00:39:00;7;5;
79117;PMS7003;68523;51.336;-0.846;2023-06-26T00:42:00;7;5;
79117;PMS7003;68523;51.336;-0.846;2023-06-26T00:45:00;6;5;
79117;PMS7003;68523;51.336;-0.846;2023-06-26T00:48:00;6;5;
79117;PMS7003;68523;51.336;-0.846;2023-06-26T00:51:00;10;9;
79117;PMS7003;68523;51.336;-0.846;2023-06-26T00:54:00;6;5;
79117;PMS7003;68523;51.336;-0.846;2023-06-26T00:57:00;6;5;
79117;PMS7003;68523;51.336;-0.846;2023-06-26T01:00:01;9;7;
79117;PMS7003;68523;51.336;-0.846;2023-06-26T01:03:00;9;7;
79117;PMS7003;68523;51.336;-0.846;2023-06-26T01:06:00;6;5;
79117;PMS7003;68523;51.336;-0.846;2023-06-26T01:09:00;8;7;
79117;PMS7003;68523;51.336;-0.846;2023-06-26T01:12:00;8;7;
79117;PMS7003;68523;51.336;-0.846;2023-06-26T01:15:00;7;7;
79117;PMS7003;68523;51.336;-0.846;2023-06-26T01:18:00;7;7;
79117;PMS7003;68523;51.336;-0.846;2023-06-26T01:21:00;6;5;
79117;PMS7003;68523;51.336;-0.846;2023-06-26T01:24:02;8;8;
79117;PMS7003;68523;51.336;-0.846;2023-06-26T01:27:00;8;8;
79117;PMS7003;68523;51.336;-0.846;2023-06-26T01:30:00;10;7;
79117;PMS7003;68523;51.336;-0.846;2023-06-26T01:33:00;10;7;
79117;PMS7003;68523;51.336;-0.846;2023-06-26T01:36:00;9;7;
79117;PMS7003;68523;51.336;-0.846;2023-06-26T01:39:00;9;7;
79117;PMS7003;68523;51.336;-0.846;2023-06-26T01:42:00;9;7;
79117;PMS7003;68523;51.336;-0.846;2023-06-26T01:45:01;5;5;
79117;PMS7003;68523;51.336;-0.846;2023-06-26T01:48:00;5;5;
79117;PMS7003;68523;51.336;-0.846;2023-06-26T01:51:00;8;7;
79117;PMS7003;68523;51.336;-0.846;2023-06-26T01:54:00;12;11;
79117;PMS7003;68523;51.336;-0.846;2023-06-26T01:57:00;12;11;
79117;PMS7003;68523;51.336;-0.846;2023-06-26T02:00:00;21;20;
79117;PMS7003;68523;51.336;-0.846;2023-06-26T02:03:00;21;20;
79117;PMS7003;68523;51.336;-0.846;2023-06-26T02:06:01;31;28;
79117;PMS7003;68523;51.336;-0.846;2023-06-26T02:09:00;23;22;
79117;PMS7003;68523;51.336;-0.846;2023-06-26T02:12:00;23;22;
79117;PMS7003;68523;51.336;-0.846;2023-06-26T02:15:00;66;52;
79117;PMS7003;68523;51.336;-0.846;2023-06-26T02:18:00;66;52;
79117;PMS7003;68523;51.336;-0.846;2023-06-26T02:21:02;87;78;
79117;PMS7003;68523;51.336;-0.846;2023-06-26T02:24:00;101;81;
79117;PMS7003;68523;51.336;-0.846;2023-06-26T02:27:00;101;81;
79117;PMS7003;68523;51.336;-0.846;2023-06-26T02:30:00;115;98;
79117;PMS7003;68523;51.336;-0.846;2023-06-26T02:33:00;115;98;
79117;PMS7003;68523;51.336;-0.846;2023-06-26T02:36:00;148;126;
79117;PMS7003;68523;51.336;-0.846;2023-06-26T02:39:00;132;115;
79117;PMS7003;68523;51.336;-0.846;2023-06-26T02:42:00;132;115;
79117;PMS7003;68523;51.336;-0.846;2023-06-26T02:45:00;131;118;
79117;PMS7003;68523;51.336;-0.846;2023-06-26T02:48:00;131;118;
79117;PMS7003;68523;51.336;-0.846;2023-06-26T02:51:00;120;109;
79117;PMS7003;68523;51.336;-0.846;2023-06-26T02:54:00;133;112;
79117;PMS7003;68523;51.336;-0.846;2023-06-26T02:57:00;133;112;
79117;PMS7003;68523;51.336;-0.846;2023-06-26T03:00:00;98;87;
79117;PMS7003;68523;51.336;-0.846;2023-06-26T03:03:00;98;87;
79117;PMS7003;68523;51.336;-0.846;2023-06-26T03:06:00;98;90;
79117;PMS7003;68523;51.336;-0.846;2023-06-26T03:09:00;57;42;
79117;PMS7003;68523;51.336;-0.846;2023-06-26T03:12:00;57;42;
79117;PMS7003;68523;51.336;-0.846;2023-06-26T03:15:00;54;43;
79117;PMS7003;68523;51.336;-0.846;2023-06-26T03:18:00;54;43;
79117;PMS7003;68523;51.336;-0.846;2023-06-26T03:21:00;32;21;
79117;PMS7003;68523;51.336;-0.846;2023-06-26T03:24:00;15;12;
79117;PMS7003;68523;51.336;-0.846;2023-06-26T03:27:00;15;12;
79117;PMS7003;68523;51.336;-0.846;2023-06-26T03:30:00;5;5;
79117;PMS7003;68523;51.336;-0.846;2023-06-26T03:33:00;5;5;
79117;PMS7003;68523;51.336;-0.846;2023-06-26T03:36:00;18;14;
79117;PMS7003;68523;51.336;-0.846;2023-06-26T03:39:00;17;14;
79117;PMS7003;68523;51.336;-0.846;2023-06-26T03:42:00;17;14;
79117;PMS7003;68523;51.336;-0.846;2023-06-26T03:45:00;22;18;
79117;PMS7003;68523;51.336;-0.846;2023-06-26T03:48:00;22;18;
79117;PMS7003;68523;51.336;-0.846;2023-06-26T03:51:00;6;6;
79117;PMS7003;68523;51.336;-0.846;2023-06-26T03:54:00;10;10;
79117;PMS7003;68523;51.336;-0.846;2023-06-26T03:57:00;10;10;
79117;PMS7003;68523;51.336;-0.846;2023-06-26T04:00:00;9;8;
79117;PMS7003;68523;51.336;-0.846;2023-06-26T04:03:00;9;8;
79117;PMS7003;68523;51.336;-0.846;2023-06-26T04:06:00;56;43;
79117;PMS7003;68523;51.336;-0.846;2023-06-26T04:09:00;71;54;
79117;PMS7003;68523;51.336;-0.846;2023-06-26T04:12:00;71;54;
79117;PMS7003;68523;51.336;-0.846;2023-06-26T04:15:00;67;51;
79117;PMS7003;68523;51.336;-0.846;2023-06-26T04:18:00;67;51;
79117;PMS7003;68523;51.336;-0.846;2023-06-26T04:21:03;40;31;
79117;PMS7003;68523;51.336;-0.846;2023-06-26T04:24:00;18;14;
79117;PMS7003;68523;51.336;-0.846;2023-06-26T04:27:00;18;14;
79117;PMS7003;68523;51.336;-0.846;2023-06-26T04:30:00;9;7;
79117;PMS7003;68523;51.336;-0.846;2023-06-26T04:33:00;9;7;
79117;PMS7003;68523;51.336;-0.846;2023-06-26T04:36:00;8;7;
79117;PMS7003;68523;51.336;-0.846;2023-06-26T04:39:02;8;7;
79117;PMS7003;68523;51.336;-0.846;2023-06-26T04:42:00;8;7;
79117;PMS7003;68523;51.336;-0.846;2023-06-26T04:45:00;9;6;
79117;PMS7003;68523;51.336;-0.846;2023-06-26T04:48:00;9;6;
79117;PMS7003;68523;51.336;-0.846;2023-06-26T04:51:00;8;8;
79117;PMS7003;68523;51.336;-0.846;2023-06-26T04:54:00;11;11;
79117;PMS7003;68523;51.336;-0.846;2023-06-26T04:57:00;11;11;
79117;PMS7003;68523;51.336;-0.846;2023-06-26T05:00:00;10;6;
79117;PMS7003;68523;51.336;-0.846;2023-06-26T05:03:00;10;6;
79117;PMS7003;68523;51.336;-0.846;2023-06-26T05:06:00;7;7;
79117;PMS7003;68523;51.336;-0.846;2023-06-26T05:09:00;9;6;
79117;PMS7003;68523;51.336;-0.846;2023-06-26T05:12:00;9;6;
79117;PMS7003;68523;51.336;-0.846;2023-06-26T05:15:00;8;5;
79117;PMS7003;68523;51.336;-0.846;2023-06-26T05:18:00;8;5;
79117;PMS7003;68523;51.336;-0.846;2023-06-26T05:21:00;9;5;
79117;PMS7003;68523;51.336;-0.846;2023-06-26T05:24:00;5;5;
79117;PMS7003;68523;51.336;-0.846;2023-06-26T05:27:00;5;5;
79117;PMS7003;68523;51.336;-0.846;2023-06-26T05:30:00;15;15;
79117;PMS7003;68523;51.336;-0.846;2023-06-26T05:33:00;15;15;
79117;PMS7003;68523;51.336;-0.846;2023-06-26T05:36:00;8;8;
79117;PMS7003;68523;51.336;-0.846;2023-06-26T05:39:00;10;10;
79117;PMS7003;68523;51.336;-0.846;2023-06-26T05:42:00;10;10;
79117;PMS7003;68523;51.336;-0.846;2023-06-26T05:45:00;5;5;
79117;PMS7003;68523;51.336;-0.846;2023-06-26T05:48:00;5;5;
79117;PMS7003;68523;51.336;-0.846;2023-06-26T05:51:00;13;13;
79117;PMS7003;68523;51.336;-0.846;2023-06-26T05:54:00;5;5;
79117;PMS7003;68523;51.336;-0.846;2023-06-26T05:57:00;5;5;
79117;PMS7003;68523;51.336;-0.846;2023-06-26T06:00:00;8;7;
79117;PMS7003;68523;51.336;-0.846;2023-06-26T06:03:00;8;7;
79117;PMS7003;68523;51.336;-0.846;2023-06-26T06:06:00;5;5;
79117;PMS7003;68523;51.336;-0.846;2023-06-26T06:09:00;8;6;
79117;PMS7003;68523;51.336;-0.846;2023-06-26T06:12:00;8;6;
79117;PMS7003;68523;51.336;-0.846;2023-06-26T06:15:00;14;10;
79117;PMS7003;68523;51.336;-0.846;2023-06-26T06:18:00;14;10;
79117;PMS7003;68523;51.336;-0.846;2023-06-26T06:21:00;49;43;
79117;PMS7003;68523;51.336;-0.846;2023-06-26T06:24:00;61;50;
79117;PMS7003;68523;51.336;-0.846;2023-06-26T06:27:00;61;50;
79117;PMS7003;68523;51.336;-0.846;2023-06-26T06:30:00;63;50;
79117;PMS7003;68523;51.336;-0.846;2023-06-26T06:33:00;63;50;
79117;PMS7003;68523;51.336;-0.846;2023-06-26T06:36:00;48;40;
79117;PMS7003;68523;51.336;-0.846;2023-06-26T06:39:00;48;40;
79117;PMS7003;68523;51.336;-0.846;2023-06-26T06:42:00;27;24;
79117;PMS7003;68523;51.336;-0.846;2023-06-26T06:45:00;21;21;
79117;PMS7003;68523;51.336;-0.846;2023-06-26T06:48:00;21;21;
79117;PMS7003;68523;51.336;-0.846;2023-06-26T06:51:01;28;28;
79117;PMS7003;68523;51.336;-0.846;2023-06-26T06:54:00;28;28;
79117;PMS7003;68523;51.336;-0.846;2023-06-26T06:57:00;20;20;
79117;PMS7003;68523;51.336;-0.846;2023-06-26T07:00:00;29;27;
79117;PMS7003;68523;51.336;-0.846;2023-06-26T07:03:00;29;27;
79117;PMS7003;68523;51.336;-0.846;2023-06-26T07:06:00;17;17;
79117;PMS7003;68523;51.336;-0.846;2023-06-26T07:09:00;17;17;
79117;PMS7003;68523;51.336;-0.846;2023-06-26T07:12:00;24;17;
79117;PMS7003;68523;51.336;-0.846;2023-06-26T07:15:00;16;16;
79117;PMS7003;68523;51.336;-0.846;2023-06-26T07:18:00;16;16;
79117;PMS7003;68523;51.336;-0.846;2023-06-26T07:21:00;21;20;
79117;PMS7003;68523;51.336;-0.846;2023-06-26T07:24:00;21;20;
79117;PMS7003;68523;51.336;-0.846;2023-06-26T07:27:00;43;36;
79117;PMS7003;68523;51.336;-0.846;2023-06-26T07:30:00;36;33;
79117;PMS7003;68523;51.336;-0.846;2023-06-26T07:33:00;36;33;
79117;PMS7003;68523;51.336;-0.846;2023-06-26T07:36:00;48;39;
79117;PMS7003;68523;51.336;-0.846;2023-06-26T07:39:00;48;39;
79117;PMS7003;68523;51.336;-0.846;2023-06-26T07:42:00;38;34;
79117;PMS7003;68523;51.336;-0.846;2023-06-26T07:45:00;30;29;
79117;PMS7003;68523;51.336;-0.846;2023-06-26T07:48:00;30;29;
79117;PMS7003;68523;51.336;-0.846;2023-06-26T07:51:00;27;27;
79117;PMS7003;68523;51.336;-0.846;2023-06-26T07:54:00;27;27;
79117;PMS7003;68523;51.336;-0.846;2023-06-26T07:57:00;28;27;
79117;PMS7003;68523;51.336;-0.846;2023-06-26T08:00:02;22;21;
79117;PMS7003;68523;51.336;-0.846;2023-06-26T08:03:00;22;21;
79117;PMS7003;68523;51.336;-0.846;2023-06-26T08:06:00;41;36;
79117;PMS7003;68523;51.336;-0.846;2023-06-26T08:09:00;41;36;
79117;PMS7003;68523;51.336;-0.846;2023-06-26T08:12:00;39;35;
79117;PMS7003;68523;51.336;-0.846;2023-06-26T08:15:00;40;34;
79117;PMS7003;68523;51.336;-0.846;2023-06-26T08:18:00;40;34;
79117;PMS7003;68523;51.336;-0.846;2023-06-26T08:21:00;47;39;
79117;PMS7003;68523;51.336;-0.846;2023-06-26T08:24:00;47;39;
79117;PMS7003;68523;51.336;-0.846;2023-06-26T08:27:00;14;12;
79117;PMS7003;68523;51.336;-0.846;2023-06-26T08:30:00;21;18;
79117;PMS7003;68523;51.336;-0.846;2023-06-26T08:33:00;21;18;
79117;PMS7003;68523;51.336;-0.846;2023-06-26T08:36:00;8;8;
79117;PMS7003;68523;51.336;-0.846;2023-06-26T08:39:00;8;8;
79117;PMS7003;68523;51.336;-0.846;2023-06-26T08:42:00;18;17;
79117;PMS7003;68523;51.336;-0.846;2023-06-26T08:45:00;27;26;
79117;PMS7003;68523;51.336;-0.846;2023-06-26T08:48:00;27;26;
79117;PMS7003;68523;51.336;-0.846;2023-06-26T08:51:01;14;14;
79117;PMS7003;68523;51.336;-0.846;2023-06-26T08:54:00;14;14;
79117;PMS7003;68523;51.336;-0.846;2023-06-26T08:57:01;21;21;
79117;PMS7003;68523;51.336;-0.846;2023-06-26T09:00:00;2;2;
79117;PMS7003;68523;51.336;-0.846;2023-06-26T09:03:00;2;2;
79117;PMS7003;68523;51.336;-0.846;2023-06-26T09:06:00;4;3;
79117;PMS7003;68523;51.336;-0.846;2023-06-26T09:09:00;4;3;
79117;PMS7003;68523;51.336;-0.846;2023-06-26T09:12:01;6;3;
79117;PMS7003;68523;51.336;-0.846;2023-06-26T09:15:00;3;3;
79117;PMS7003;68523;51.336;-0.846;2023-06-26T09:18:00;3;3;
79117;PMS7003;68523;51.336;-0.846;2023-06-26T09:21:00;2;1;
79117;PMS7003;68523;51.336;-0.846;2023-06-26T09:24:00;2;1;
79117;PMS7003;68523;51.336;-0.846;2023-06-26T09:27:00;6;4;
79117;PMS7003;68523;51.336;-0.846;2023-06-26T09:30:01;2;2;
79117;PMS7003;68523;51.336;-0.846;2023-06-26T09:36:00;3;2;
79117;PMS7003;68523;51.336;-0.846;2023-06-26T09:39:00;3;2;
79117;PMS7003;68523;51.336;-0.846;2023-06-26T09:42:00;2;2;
79117;PMS7003;68523;51.336;-0.846;2023-06-26T09:45:00;2;2;
79117;PMS7003;68523;51.336;-0.846;2023-06-26T09:48:00;2;2;
79117;PMS7003;68523;51.336;-0.846;2023-06-26T09:51:00;2;2;
79117;PMS7003;68523;51.336;-0.846;2023-06-26T09:54:00;2;2;
79117;PMS7003;68523;51.336;-0.846;2023-06-26T09:57:06;3;3;
79117;PMS7003;68523;51.336;-0.846;2023-06-26T10:00:00;3;3;
79117;PMS7003;68523;51.336;-0.846;2023-06-26T10:03:00;3;3;
79117;PMS7003;68523;51.336;-0.846;2023-06-26T10:06:00;17;13;
79117;PMS7003;68523;51.336;-0.846;2023-06-26T10:09:00;17;13;
79117;PMS7003;68523;51.336;-0.846;2023-06-26T10:12:01;4;4;
79117;PMS7003;68523;51.336;-0.846;2023-06-26T10:15:00;2;2;
79117;PMS7003;68523;51.336;-0.846;2023-06-26T10:18:00;2;2;
79117;PMS7003;68523;51.336;-0.846;2023-06-26T10:21:00;2;2;
79117;PMS7003;68523;51.336;-0.846;2023-06-26T10:24:00;2;2;
79117;PMS7003;68523;51.336;-0.846;2023-06-26T10:27:02;17;17;
79117;PMS7003;68523;51.336;-0.846;2023-06-26T10:30:02;16;15;
79117;PMS7003;68523;51.336;-0.846;2023-06-26T10:33:00;16;15;
79117;PMS7003;68523;51.336;-0.846;2023-06-26T10:39:02;2;2;
79117;PMS7003;68523;51.336;-0.846;2023-06-26T10:42:08;6;2;
79117;PMS7003;68523;51.336;-0.846;2023-06-26T10:45:08;3;3;
79117;PMS7003;68523;51.336;-0.846;2023-06-26T10:48:00;3;3;
79117;PMS7003;68523;51.336;-0.846;2023-06-26T10:51:05;29;27;
79117;PMS7003;68523;51.336;-0.846;2023-06-26T10:54:00;29;27;
79117;PMS7003;68523;51.336;-0.846;2023-06-26T10:57:01;14;14;
79117;PMS7003;68523;51.336;-0.846;2023-06-26T11:03:00;2;1;
79117;PMS7003;68523;51.336;-0.846;2023-06-26T11:06:08;8;8;
79117;PMS7003;68523;51.336;-0.846;2023-06-26T11:09:01;8;8;
79117;PMS7003;68523;51.336;-0.846;2023-06-26T11:12:00;2;2;
79117;PMS7003;68523;51.336;-0.846;2023-06-26T11:15:00;1;1;
79117;PMS7003;68523;51.336;-0.846;2023-06-26T11:18:00;1;1;
79117;PMS7003;68523;51.336;-0.846;2023-06-26T11:21:07;3;2;
79117;PMS7003;68523;51.336;-0.846;2023-06-26T11:24:00;3;2;
79117;PMS7003;68523;51.336;-0.846;2023-06-26T11:27:01;2;2;
79117;PMS7003;68523;51.336;-0.846;2023-06-26T11:30:00;2;2;
79117;PMS7003;68523;51.336;-0.846;2023-06-26T11:33:03;2;2;
79117;PMS7003;68523;51.336;-0.846;2023-06-26T11:36:07;3;1;
79117;PMS7003;68523;51.336;-0.846;2023-06-26T11:39:00;3;1;
79117;PMS7003;68523;51.336;-0.846;2023-06-26T11:42:00;3;2;
79117;PMS7003;68523;51.336;-0.846;2023-06-26T11:45:00;2;2;
79117;PMS7003;68523;51.336;-0.846;2023-06-26T11:48:00;2;2;
79117;PMS7003;68523;51.336;-0.846;2023-06-26T11:51:00;2;2;
79117;PMS7003;68523;51.336;-0.846;2023-06-26T11:54:00;2;2;
79117;PMS7003;68523;51.336;-0.846;2023-06-26T11:57:00;2;1;
79117;PMS7003;68523;51.336;-0.846;2023-06-26T12:00:10;7;5;
79117;PMS7003;68523;51.336;-0.846;2023-06-26T12:03:00;7;5;
79117;PMS7003;68523;51.336;-0.846;2023-06-26T12:06:00;51;43;
79117;PMS7003;68523;51.336;-0.846;2023-06-26T12:09:01;51;43;
79117;PMS7003;68523;51.336;-0.846;2023-06-26T12:12:00;35;32;
79117;PMS7003;68523;51.336;-0.846;2023-06-26T12:15:00;28;27;
79117;PMS7003;68523;51.336;-0.846;2023-06-26T12:18:00;28;27;
79117;PMS7003;68523;51.336;-0.846;2023-06-26T12:21:00;46;38;
79117;PMS7003;68523;51.336;-0.846;2023-06-26T12:24:00;46;38;
79117;PMS7003;68523;51.336;-0.846;2023-06-26T12:27:00;55;45;
79117;PMS7003;68523;51.336;-0.846;2023-06-26T12:30:02;51;43;
79117;PMS7003;68523;51.336;-0.846;2023-06-26T12:33:00;51;43;
79117;PMS7003;68523;51.336;-0.846;2023-06-26T12:36:00;51;43;
79117;PMS7003;68523;51.336;-0.846;2023-06-26T12:39:00;51;43;
79117;PMS7003;68523;51.336;-0.846;2023-06-26T12:42:00;48;41;
79117;PMS7003;68523;51.336;-0.846;2023-06-26T12:45:09;52;43;
79117;PMS7003;68523;51.336;-0.846;2023-06-26T12:48:08;52;43;
79117;PMS7003;68523;51.336;-0.846;2023-06-26T12:51:05;51;42;
79117;PMS7003;68523;51.336;-0.846;2023-06-26T12:54:00;51;42;
79117;PMS7003;68523;51.336;-0.846;2023-06-26T12:57:00;31;29;
79117;PMS7003;68523;51.336;-0.846;2023-06-26T13:00:00;38;34;
79117;PMS7003;68523;51.336;-0.846;2023-06-26T13:03:00;38;34;
79117;PMS7003;68523;51.336;-0.846;2023-06-26T13:06:00;46;39;
79117;PMS7003;68523;51.336;-0.846;2023-06-26T13:09:00;46;39;
79117;PMS7003;68523;51.336;-0.846;2023-06-26T13:12:00;42;37;
79117;PMS7003;68523;51.336;-0.846;2023-06-26T13:15:00;40;35;
79117;PMS7003;68523;51.336;-0.846;2023-06-26T13:18:00;40;35;
79117;PMS7003;68523;51.336;-0.846;2023-06-26T13:21:00;21;21;
79117;PMS7003;68523;51.336;-0.846;2023-06-26T13:24:00;21;21;
79117;PMS7003;68523;51.336;-0.846;2023-06-26T13:27:00;10;9;
79117;PMS7003;68523;51.336;-0.846;2023-06-26T13:30:00;10;9;
79117;PMS7003;68523;51.336;-0.846;2023-06-26T13:33:00;29;29;
79117;PMS7003;68523;51.336;-0.846;2023-06-26T13:36:00;11;11;
79117;PMS7003;68523;51.336;-0.846;2023-06-26T13:39:00;11;11;
79117;PMS7003;68523;51.336;-0.846;2023-06-26T13:42:00;20;20;
79117;PMS7003;68523;51.336;-0.846;2023-06-26T13:45:00;20;20;
79117;PMS7003;68523;51.336;-0.846;2023-06-26T13:48:00;4;4;
79117;PMS7003;68523;51.336;-0.846;2023-06-26T13:51:00;21;21;
79117;PMS7003;68523;51.336;-0.846;2023-06-26T13:54:00;21;21;
79117;PMS7003;68523;51.336;-0.846;2023-06-26T13:57:00;8;7;
79117;PMS7003;68523;51.336;-0.846;2023-06-26T14:00:00;8;7;
79117;PMS7003;68523;51.336;-0.846;2023-06-26T14:03:00;9;9;
79117;PMS7003;68523;51.336;-0.846;2023-06-26T14:06:00;15;15;
79117;PMS7003;68523;51.336;-0.846;2023-06-26T14:09:00;15;15;
79117;PMS7003;68523;51.336;-0.846;2023-06-26T14:12:00;6;6;
79117;PMS7003;68523;51.336;-0.846;2023-06-26T14:15:00;6;6;
79117;PMS7003;68523;51.336;-0.846;2023-06-26T14:18:00;11;10;
79117;PMS7003;68523;51.336;-0.846;2023-06-26T14:21:00;8;7;
79117;PMS7003;68523;51.336;-0.846;2023-06-26T14:24:00;8;7;
79117;PMS7003;68523;51.336;-0.846;2023-06-26T14:27:00;8;7;
79117;PMS7003;68523;51.336;-0.846;2023-06-26T14:30:00;8;7;
79117;PMS7003;68523;51.336;-0.846;2023-06-26T14:33:00;5;4;
79117;PMS7003;68523;51.336;-0.846;2023-06-26T14:36:00;3;3;
79117;PMS7003;68523;51.336;-0.846;2023-06-26T14:39:00;3;3;
79117;PMS7003;68523;51.336;-0.846;2023-06-26T14:42:00;3;3;
79117;PMS7003;68523;51.336;-0.846;2023-06-26T14:45:00;3;3;
79117;PMS7003;68523;51.336;-0.846;2023-06-26T14:48:00;6;4;
79117;PMS7003;68523;51.336;-0.846;2023-06-26T14:51:00;2;1;
79117;PMS7003;68523;51.336;-0.846;2023-06-26T14:54:00;2;1;
79117;PMS7003;68523;51.336;-0.846;2023-06-26T14:57:00;1;1;
79117;PMS7003;68523;51.336;-0.846;2023-06-26T15:00:00;1;1;
79117;PMS7003;68523;51.336;-0.846;2023-06-26T15:03:00;4;1;
79117;PMS7003;68523;51.336;-0.846;2023-06-26T15:06:00;0;0;
79117;PMS7003;68523;51.336;-0.846;2023-06-26T15:09:00;0;0;
79117;PMS7003;68523;51.336;-0.846;2023-06-26T15:12:00;1;1;
79117;PMS7003;68523;51.336;-0.846;2023-06-26T15:15:00;1;1;
79117;PMS7003;68523;51.336;-0.846;2023-06-26T15:18:00;3;0;
79117;PMS7003;68523;51.336;-0.846;2023-06-26T15:21:00;0;0;
79117;PMS7003;68523;51.336;-0.846;2023-06-26T15:24:00;0;0;
79117;PMS7003;68523;51.336;-0.846;2023-06-26T15:27:00;0;0;
79117;PMS7003;68523;51.336;-0.846;2023-06-26T15:30:00;0;0;
79117;PMS7003;68523;51.336;-0.846;2023-06-26T15:33:00;1;0;
79117;PMS7003;68523;51.336;-0.846;2023-06-26T15:36:00;1;1;
79117;PMS7003;68523;51.336;-0.846;2023-06-26T15:39:00;1;1;
79117;PMS7003;68523;51.336;-0.846;2023-06-26T15:42:00;1;1;
79117;PMS7003;68523;51.336;-0.846;2023-06-26T15:45:00;1;1;
79117;PMS7003;68523;51.336;-0.846;2023-06-26T15:48:00;3;1;
79117;PMS7003;68523;51.336;-0.846;2023-06-26T15:51:00;2;1;
79117;PMS7003;68523;51.336;-0.846;2023-06-26T15:54:00;2;1;
79117;PMS7003;68523;51.336;-0.846;2023-06-26T15:57:00;5;3;
79117;PMS7003;68523;51.336;-0.846;2023-06-26T16:00:00;5;3;
79117;PMS7003;68523;51.336;-0.846;2023-06-26T16:03:00;1;1;
79117;PMS7003;68523;51.336;-0.846;2023-06-26T16:06:01;2;2;
79117;PMS7003;68523;51.336;-0.846;2023-06-26T16:09:00;2;2;
79117;PMS7003;68523;51.336;-0.846;2023-06-26T16:12:00;5;4;
79117;PMS7003;68523;51.336;-0.846;2023-06-26T16:15:00;5;4;
79117;PMS7003;68523;51.336;-0.846;2023-06-26T16:18:00;0;0;
79117;PMS7003;68523;51.336;-0.846;2023-06-26T16:21:00;1;1;
79117;PMS7003;68523;51.336;-0.846;2023-06-26T16:24:00;1;1;
79117;PMS7003;68523;51.336;-0.846;2023-06-26T16:27:00;1;1;
79117;PMS7003;68523;51.336;-0.846;2023-06-26T16:30:00;1;1;
79117;PMS7003;68523;51.336;-0.846;2023-06-26T16:33:00;0;0;
79117;PMS7003;68523;51.336;-0.846;2023-06-26T16:36:00;0;0;
79117;PMS7003;68523;51.336;-0.846;2023-06-26T16:39:00;0;0;
79117;PMS7003;68523;51.336;-0.846;2023-06-26T16:42:00;0;0;
79117;PMS7003;68523;51.336;-0.846;2023-06-26T16:45:00;0;0;
79117;PMS7003;68523;51.336;-0.846;2023-06-26T16:48:00;2;1;
79117;PMS7003;68523;51.336;-0.846;2023-06-26T16:51:00;3;2;
79117;PMS7003;68523;51.336;-0.846;2023-06-26T16:54:00;3;2;
79117;PMS7003;68523;51.336;-0.846;2023-06-26T16:57:00;4;2;
79117;PMS7003;68523;51.336;-0.846;2023-06-26T17:00:00;4;2;
79117;PMS7003;68523;51.336;-0.846;2023-06-26T17:03:00;3;2;
79117;PMS7003;68523;51.336;-0.846;2023-06-26T17:06:00;1;0;
79117;PMS7003;68523;51.336;-0.846;2023-06-26T17:09:00;1;0;
79117;PMS7003;68523;51.336;-0.846;2023-06-26T17:12:00;5;2;
79117;PMS7003;68523;51.336;-0.846;2023-06-26T17:15:00;5;2;
79117;PMS7003;68523;51.336;-0.846;2023-06-26T17:18:00;1;1;
79117;PMS7003;68523;51.336;-0.846;2023-06-26T17:21:00;2;1;
79117;PMS7003;68523;51.336;-0.846;2023-06-26T17:24:00;2;1;
79117;PMS7003;68523;51.336;-0.846;2023-06-26T17:27:08;1;1;
79117;PMS7003;68523;51.336;-0.846;2023-06-26T17:30:00;1;1;
79117;PMS7003;68523;51.336;-0.846;2023-06-26T17:33:00;0;0;
79117;PMS7003;68523;51.336;-0.846;2023-06-26T17:36:00;1;1;
79117;PMS7003;68523;51.336;-0.846;2023-06-26T17:39:00;1;1;
79117;PMS7003;68523;51.336;-0.846;2023-06-26T17:42:00;2;1;
79117;PMS7003;68523;51.336;-0.846;2023-06-26T17:45:00;2;1;
79117;PMS7003;68523;51.336;-0.846;2023-06-26T17:48:00;0;0;
79117;PMS7003;68523;51.336;-0.846;2023-06-26T17:51:00;1;1;
79117;PMS7003;68523;51.336;-0.846;2023-06-26T17:54:00;1;1;
79117;PMS7003;68523;51.336;-0.846;2023-06-26T17:57:00;5;3;
79117;PMS7003;68523;51.336;-0.846;2023-06-26T18:00:00;5;3;
79117;PMS7003;68523;51.336;-0.846;2023-06-26T18:03:00;2;2;
79117;PMS7003;68523;51.336;-0.846;2023-06-26T18:06:00;2;2;
79117;PMS7003;68523;51.336;-0.846;2023-06-26T18:09:00;2;2;
79117;PMS7003;68523;51.336;-0.846;2023-06-26T18:12:00;2;2;
79117;PMS7003;68523;51.336;-0.846;2023-06-26T18:15:00;2;2;
79117;PMS7003;68523;51.336;-0.846;2023-06-26T18:18:00;0;0;
79117;PMS7003;68523;51.336;-0.846;2023-06-26T18:21:00;3;2;
79117;PMS7003;68523;51.336;-0.846;2023-06-26T18:24:00;3;2;
79117;PMS7003;68523;51.336;-0.846;2023-06-26T18:27:00;2;2;
79117;PMS7003;68523;51.336;-0.846;2023-06-26T18:30:00;2;2;
79117;PMS7003;68523;51.336;-0.846;2023-06-26T18:33:00;1;1;
79117;PMS7003;68523;51.336;-0.846;2023-06-26T18:36:00;1;1;
79117;PMS7003;68523;51.336;-0.846;2023-06-26T18:39:00;1;1;
79117;PMS7003;68523;51.336;-0.846;2023-06-26T18:42:00;2;1;
79117;PMS7003;68523;51.336;-0.846;2023-06-26T18:45:00;2;1;
79117;PMS7003;68523;51.336;-0.846;2023-06-26T18:48:00;1;1;
79117;PMS7003;68523;51.336;-0.846;2023-06-26T18:51:00;2;2;
79117;PMS7003;68523;51.336;-0.846;2023-06-26T18:54:00;2;2;
79117;PMS7003;68523;51.336;-0.846;2023-06-26T18:57:00;4;3;
79117;PMS7003;68523;51.336;-0.846;2023-06-26T19:00:00;4;3;
79117;PMS7003;68523;51.336;-0.846;2023-06-26T19:03:00;3;2;
79117;PMS7003;68523;51.336;-0.846;2023-06-26T19:06:00;1;1;
79117;PMS7003;68523;51.336;-0.846;2023-06-26T19:09:00;1;1;
79117;PMS7003;68523;51.336;-0.846;2023-06-26T19:12:00;1;1;
79117;PMS7003;68523;51.336;-0.846;2023-06-26T19:15:00;1;1;
79117;PMS7003;68523;51.336;-0.846;2023-06-26T19:18:00;2;2;
79117;PMS7003;68523;51.336;-0.846;2023-06-26T19:21:00;8;5;
79117;PMS7003;68523;51.336;-0.846;2023-06-26T19:24:00;8;5;
79117;PMS7003;68523;51.336;-0.846;2023-06-26T19:27:00;4;2;
79117;PMS7003;68523;51.336;-0.846;2023-06-26T19:30:00;4;2;
79117;PMS7003;68523;51.336;-0.846;2023-06-26T19:33:00;2;2;
79117;PMS7003;68523;51.336;-0.846;2023-06-26T19:36:00;11;11;
79117;PMS7003;68523;51.336;-0.846;2023-06-26T19:39:00;11;11;
79117;PMS7003;68523;51.336;-0.846;2023-06-26T19:42:00;2;2;
79117;PMS7003;68523;51.336;-0.846;2023-06-26T19:45:00;2;2;
79117;PMS7003;68523;51.336;-0.846;2023-06-26T19:48:00;1;1;
79117;PMS7003;68523;51.336;-0.846;2023-06-26T19:51:00;5;3;
79117;PMS7003;68523;51.336;-0.846;2023-06-26T19:54:00;5;3;
79117;PMS7003;68523;51.336;-0.846;2023-06-26T19:57:00;9;9;
79117;PMS7003;68523;51.336;-0.846;2023-06-26T20:00:00;9;9;
79117;PMS7003;68523;51.336;-0.846;2023-06-26T20:06:01;10;10;
79117;PMS7003;68523;51.336;-0.846;2023-06-26T20:09:00;10;10;